sensor_id;sensor_type;location;lat;lon;timestamp;pressure;altitude;pressure_sealevel;temperature;humidity
67545;BME280;54380;47.770;11.150;2024-01-30T00:01:58;96193.91;;;1.35;58.09
67545;BME280;54380;47.770;11.150;2024-01-30T00:04:25;96187.06;;;1.34;57.96
67545;BME280;54380;47.770;11.150;2024-01-30T00:06:53;96184.63;;;1.33;57.92
67545;BME280;54380;47.770;11.150;2024-01-30T00:09:20;96179.91;;;1.28;57.60
67545;BME280;54380;47.770;11.150;2024-01-30T00:11:47;96183.81;;;1.24;57.88
67545;BME280;54380;47.770;11.150;2024-01-30T00:14:13;96178.44;;;1.17;57.99
67545;BME280;54380;47.770;11.150;2024-01-30T00:16:40;96179.72;;;1.13;58.02
67545;BME280;54380;47.770;11.150;2024-01-30T00:19:07;96178.91;;;1.13;58.15
67545;BME280;54380;47.770;11.150;2024-01-30T00:21:35;96178.22;;;1.02;58.07
67545;BME280;54380;47.770;11.150;2024-01-30T00:24:03;96187.78;;;0.94;58.04
67545;BME280;54380;47.770;11.150;2024-01-30T00:26:30;96185.53;;;0.91;58.61
67545;BME280;54380;47.770;11.150;2024-01-30T00:28:57;96185.34;;;0.92;58.93
67545;BME280;54380;47.770;11.150;2024-01-30T00:31:24;96187.66;;;0.95;58.53
67545;BME280;54380;47.770;11.150;2024-01-30T00:33:51;96184.88;;;0.97;58.97
67545;BME280;54380;47.770;11.150;2024-01-30T00:36:18;96195.94;;;0.99;59.26
67545;BME280;54380;47.770;11.150;2024-01-30T00:38:45;96191.53;;;0.99;58.56
67545;BME280;54380;47.770;11.150;2024-01-30T00:41:13;96196.09;;;0.97;58.74
67545;BME280;54380;47.770;11.150;2024-01-30T00:43:40;96203.25;;;0.95;58.49
67545;BME280;54380;47.770;11.150;2024-01-30T00:46:07;96192.69;;;0.97;58.42
67545;BME280;54380;47.770;11.150;2024-01-30T00:48:34;96200.66;;;0.95;58.53
67545;BME280;54380;47.770;11.150;2024-01-30T00:51:00;96198.34;;;0.92;58.76
67545;BME280;54380;47.770;11.150;2024-01-30T00:53:27;96196.72;;;0.91;58.79
67545;BME280;54380;47.770;11.150;2024-01-30T00:55:53;96195.91;;;0.91;58.83
67545;BME280;54380;47.770;11.150;2024-01-30T00:58:21;96200.00;;;0.93;58.84
67545;BME280;54380;47.770;11.150;2024-01-30T01:00:48;96202.59;;;0.93;58.70
67545;BME280;54380;47.770;11.150;2024-01-30T01:03:15;96192.19;;;0.93;58.54
67545;BME280;54380;47.770;11.150;2024-01-30T01:05:42;96194.44;;;0.88;58.39
67545;BME280;54380;47.770;11.150;2024-01-30T01:08:08;96205.63;;;0.80;58.19
67545;BME280;54380;47.770;11.150;2024-01-30T01:10:35;96202.81;;;0.74;58.32
67545;BME280;54380;47.770;11.150;2024-01-30T01:13:02;96196.19;;;0.71;58.77
67545;BME280;54380;47.770;11.150;2024-01-30T01:15:30;96202.34;;;0.70;59.15
67545;BME280;54380;47.770;11.150;2024-01-30T01:17:57;96204.13;;;0.70;58.75
67545;BME280;54380;47.770;11.150;2024-01-30T01:20:24;96203.31;;;0.69;58.92
67545;BME280;54380;47.770;11.150;2024-01-30T01:22:51;96203.31;;;0.69;59.19
67545;BME280;54380;47.770;11.150;2024-01-30T01:25:19;96199.59;;;0.72;59.06
67545;BME280;54380;47.770;11.150;2024-01-30T01:27:46;96202.00;;;0.73;58.84
67545;BME280;54380;47.770;11.150;2024-01-30T01:30:18;96203.00;;;0.72;59.05
67545;BME280;54380;47.770;11.150;2024-01-30T01:32:53;96201.66;;;0.68;58.66
67545;BME280;54380;47.770;11.150;2024-01-30T01:35:24;96200.38;;;0.64;58.87
67545;BME280;54380;47.770;11.150;2024-01-30T01:37:51;96204.91;;;0.62;58.97
67545;BME280;54380;47.770;11.150;2024-01-30T01:40:22;96198.09;;;0.61;59.03
67545;BME280;54380;47.770;11.150;2024-01-30T01:42:49;96198.09;;;0.61;58.95
67545;BME280;54380;47.770;11.150;2024-01-30T01:45:17;96194.81;;;0.59;59.13
67545;BME280;54380;47.770;11.150;2024-01-30T01:47:44;96195.78;;;0.58;58.98
67545;BME280;54380;47.770;11.150;2024-01-30T01:50:14;96202.25;;;0.54;59.18
67545;BME280;54380;47.770;11.150;2024-01-30T01:52:46;96203.06;;;0.54;59.63
67545;BME280;54380;47.770;11.150;2024-01-30T01:55:14;96195.94;;;0.56;59.08
67545;BME280;54380;47.770;11.150;2024-01-30T01:57:42;96198.84;;;0.53;58.79
67545;BME280;54380;47.770;11.150;2024-01-30T02:00:10;96197.84;;;0.46;59.26
67545;BME280;54380;47.770;11.150;2024-01-30T02:02:38;96199.63;;;0.46;59.23
67545;BME280;54380;47.770;11.150;2024-01-30T02:05:06;96197.03;;;0.46;59.30
67545;BME280;54380;47.770;11.150;2024-01-30T02:07:34;96192.78;;;0.44;59.12
67545;BME280;54380;47.770;11.150;2024-01-30T02:10:01;96194.09;;;0.40;59.10
67545;BME280;54380;47.770;11.150;2024-01-30T02:12:28;96195.34;;;0.36;59.47
67545;BME280;54380;47.770;11.150;2024-01-30T02:14:56;96195.81;;;0.32;59.60
67545;BME280;54380;47.770;11.150;2024-01-30T02:17:23;96189.66;;;0.33;59.48
67545;BME280;54380;47.770;11.150;2024-01-30T02:19:50;96190.31;;;0.35;59.56
67545;BME280;54380;47.770;11.150;2024-01-30T02:22:19;96186.75;;;0.36;59.26
67545;BME280;54380;47.770;11.150;2024-01-30T02:24:46;96189.00;;;0.31;59.45
67545;BME280;54380;47.770;11.150;2024-01-30T02:27:12;96191.75;;;0.29;59.54
67545;BME280;54380;47.770;11.150;2024-01-30T02:29:39;96196.78;;;0.31;59.85
67545;BME280;54380;47.770;11.150;2024-01-30T02:32:06;96190.47;;;0.33;59.88
67545;BME280;54380;47.770;11.150;2024-01-30T02:34:34;96188.84;;;0.32;59.95
67545;BME280;54380;47.770;11.150;2024-01-30T02:37:01;96189.66;;;0.33;59.45
67545;BME280;54380;47.770;11.150;2024-01-30T02:39:29;96191.28;;;0.34;59.80
67545;BME280;54380;47.770;11.150;2024-01-30T02:41:56;96187.06;;;0.33;59.51
67545;BME280;54380;47.770;11.150;2024-01-30T02:44:23;96189.50;;;0.34;59.43
67545;BME280;54380;47.770;11.150;2024-01-30T02:46:50;96183.47;;;0.34;59.57
67545;BME280;54380;47.770;11.150;2024-01-30T02:49:16;96188.53;;;0.35;59.77
67545;BME280;54380;47.770;11.150;2024-01-30T02:51:43;96188.22;;;0.38;59.47
67545;BME280;54380;47.770;11.150;2024-01-30T02:54:10;96186.44;;;0.39;59.36
67545;BME280;54380;47.770;11.150;2024-01-30T02:56:38;96183.03;;;0.38;59.68
67545;BME280;54380;47.770;11.150;2024-01-30T02:59:06;96183.03;;;0.38;59.24
67545;BME280;54380;47.770;11.150;2024-01-30T03:01:32;96180.44;;;0.38;59.40
67545;BME280;54380;47.770;11.150;2024-01-30T03:03:59;96176.22;;;0.37;59.24
67545;BME280;54380;47.770;11.150;2024-01-30T03:06:26;96178.94;;;0.36;59.79
67545;BME280;54380;47.770;11.150;2024-01-30T03:08:53;96175.69;;;0.34;59.58
67545;BME280;54380;47.770;11.150;2024-01-30T03:11:21;96178.28;;;0.34;59.26
67545;BME280;54380;47.770;11.150;2024-01-30T03:13:49;96176.53;;;0.34;59.18
67545;BME280;54380;47.770;11.150;2024-01-30T03:16:16;96178.28;;;0.34;59.26
67545;BME280;54380;47.770;11.150;2024-01-30T03:18:43;96177.47;;;0.33;59.18
67545;BME280;54380;47.770;11.150;2024-01-30T03:21:10;96175.66;;;0.26;59.03
67545;BME280;54380;47.770;11.150;2024-01-30T03:23:36;96178.06;;;0.19;59.25
67545;BME280;54380;47.770;11.150;2024-01-30T03:26:04;96176.91;;;0.13;59.72
67545;BME280;54380;47.770;11.150;2024-01-30T03:28:33;96175.56;;;0.09;59.25
67545;BME280;54380;47.770;11.150;2024-01-30T03:31:01;96179.13;;;0.08;59.79
67545;BME280;54380;47.770;11.150;2024-01-30T03:33:27;96171.34;;;0.08;59.80
67545;BME280;54380;47.770;11.150;2024-01-30T03:35:55;96183.22;;;0.11;59.84
67545;BME280;54380;47.770;11.150;2024-01-30T03:38:21;96173.78;;;0.10;59.47
67545;BME280;54380;47.770;11.150;2024-01-30T03:40:48;96176.38;;;0.10;59.89
67545;BME280;54380;47.770;11.150;2024-01-30T03:43:15;96169.88;;;0.06;59.62
67545;BME280;54380;47.770;11.150;2024-01-30T03:45:42;96174.09;;;0.07;59.61
67545;BME280;54380;47.770;11.150;2024-01-30T03:48:10;96163.56;;;0.08;59.74
67545;BME280;54380;47.770;11.150;2024-01-30T03:50:37;96167.09;;;0.07;59.52
67545;BME280;54380;47.770;11.150;2024-01-30T03:53:04;96171.34;;;0.08;59.55
67545;BME280;54380;47.770;11.150;2024-01-30T03:55:30;96169.69;;;0.07;59.54
67545;BME280;54380;47.770;11.150;2024-01-30T03:57:57;96167.41;;;0.04;59.66
67545;BME280;54380;47.770;11.150;2024-01-30T04:00:24;96170.16;;;0.03;59.96
67545;BME280;54380;47.770;11.150;2024-01-30T04:02:50;96167.72;;;0.01;59.90
67545;BME280;54380;47.770;11.150;2024-01-30T04:05:21;96167.06;;;-0.01;59.94
67545;BME280;54380;47.770;11.150;2024-01-30T04:07:48;96170.31;;;0.01;59.80
67545;BME280;54380;47.770;11.150;2024-01-30T04:10:16;96161.88;;;-0.01;59.54
67545;BME280;54380;47.770;11.150;2024-01-30T04:12:43;96173.38;;;-0.04;59.59
67545;BME280;54380;47.770;11.150;2024-01-30T04:15:09;96170.09;;;-0.06;59.65
67545;BME280;54380;47.770;11.150;2024-01-30T04:17:36;96166.38;;;-0.03;59.72
67545;BME280;54380;47.770;11.150;2024-01-30T04:20:04;96163.16;;;-0.05;59.92
67545;BME280;54380;47.770;11.150;2024-01-30T04:22:33;96175.97;;;-0.04;59.91
67545;BME280;54380;47.770;11.150;2024-01-30T04:24:59;96174.84;;;-0.01;59.52
67545;BME280;54380;47.770;11.150;2024-01-30T04:27:26;96174.72;;;0.01;59.64
67545;BME280;54380;47.770;11.150;2024-01-30T04:29:53;96178.41;;;-0.02;59.83
67545;BME280;54380;47.770;11.150;2024-01-30T04:32:20;96174.03;;;-0.02;60.06
67545;BME280;54380;47.770;11.150;2024-01-30T04:34:47;96169.97;;;-0.04;59.88
67545;BME280;54380;47.770;11.150;2024-01-30T04:37:14;96166.56;;;-0.05;59.94
67545;BME280;54380;47.770;11.150;2024-01-30T04:39:42;96171.75;;;-0.05;60.13
67545;BME280;54380;47.770;11.150;2024-01-30T04:42:09;96171.22;;;-0.08;59.93
67545;BME280;54380;47.770;11.150;2024-01-30T04:44:36;96171.69;;;-0.13;59.79
67545;BME280;54380;47.770;11.150;2024-01-30T04:47:03;96178.16;;;-0.17;59.55
67545;BME280;54380;47.770;11.150;2024-01-30T04:49:31;96166.16;;;-0.18;60.20
67545;BME280;54380;47.770;11.150;2024-01-30T04:51:58;96171.66;;;-0.21;60.13
67545;BME280;54380;47.770;11.150;2024-01-30T04:54:25;96178.59;;;-0.22;60.45
67545;BME280;54380;47.770;11.150;2024-01-30T04:56:53;96180.91;;;-0.18;60.39
67545;BME280;54380;47.770;11.150;2024-01-30T04:59:20;96179.94;;;-0.17;60.41
67545;BME280;54380;47.770;11.150;2024-01-30T05:01:47;96179.94;;;-0.17;60.02
67545;BME280;54380;47.770;11.150;2024-01-30T05:04:14;96183.41;;;-0.27;59.48
67545;BME280;54380;47.770;11.150;2024-01-30T05:06:43;96178.34;;;-0.36;59.76
67545;BME280;54380;47.770;11.150;2024-01-30T05:09:10;96182.34;;;-0.42;59.98
67545;BME280;54380;47.770;11.150;2024-01-30T05:11:37;96177.97;;;-0.41;59.79
67545;BME280;54380;47.770;11.150;2024-01-30T05:14:05;96182.19;;;-0.40;60.19
67545;BME280;54380;47.770;11.150;2024-01-30T05:16:32;96170.31;;;-0.43;60.18
67545;BME280;54380;47.770;11.150;2024-01-30T05:18:59;96174.03;;;-0.46;60.28
67545;BME280;54380;47.770;11.150;2024-01-30T05:21:29;96178.19;;;-0.53;60.10
67545;BME280;54380;47.770;11.150;2024-01-30T05:23:56;96177.97;;;-0.59;60.76
67545;BME280;54380;47.770;11.150;2024-01-30T05:26:22;96183.84;;;-0.57;60.75
67545;BME280;54380;47.770;11.150;2024-01-30T05:28:49;96182.56;;;-0.53;60.51
67545;BME280;54380;47.770;11.150;2024-01-30T05:31:17;96185.00;;;-0.52;60.85
67545;BME280;54380;47.770;11.150;2024-01-30T05:33:46;96177.84;;;-0.58;60.63
67545;BME280;54380;47.770;11.150;2024-01-30T05:36:13;96179.91;;;-0.61;61.01
67545;BME280;54380;47.770;11.150;2024-01-30T05:38:39;96176.13;;;-0.67;61.41
67545;BME280;54380;47.770;11.150;2024-01-30T05:41:06;96177.38;;;-0.71;61.46
67545;BME280;54380;47.770;11.150;2024-01-30T05:43:34;96180.56;;;-0.77;61.24
67545;BME280;54380;47.770;11.150;2024-01-30T05:46:01;96179.75;;;-0.78;61.80
67545;BME280;54380;47.770;11.150;2024-01-30T05:48:29;96178.34;;;-0.72;61.77
67545;BME280;54380;47.770;11.150;2024-01-30T05:50:56;96182.94;;;-0.66;61.59
67545;BME280;54380;47.770;11.150;2024-01-30T05:53:23;96184.13;;;-0.60;61.59
67545;BME280;54380;47.770;11.150;2024-01-30T05:55:50;96183.03;;;-0.58;61.21
67545;BME280;54380;47.770;11.150;2024-01-30T05:58:16;96185.31;;;-0.55;60.96
67545;BME280;54380;47.770;11.150;2024-01-30T06:00:43;96184.66;;;-0.57;60.83
67545;BME280;54380;47.770;11.150;2024-01-30T06:03:10;96186.44;;;-0.57;61.30
67545;BME280;54380;47.770;11.150;2024-01-30T06:05:38;96185.63;;;-0.58;61.37
67545;BME280;54380;47.770;11.150;2024-01-30T06:08:05;96187.91;;;-0.55;61.49
67545;BME280;54380;47.770;11.150;2024-01-30T06:10:32;96185.16;;;-0.53;61.42
67545;BME280;54380;47.770;11.150;2024-01-30T06:12:59;96187.31;;;-0.49;61.20
67545;BME280;54380;47.770;11.150;2024-01-30T06:15:26;96181.69;;;-0.44;61.38
67545;BME280;54380;47.770;11.150;2024-01-30T06:17:53;96183.97;;;-0.41;61.50
67545;BME280;54380;47.770;11.150;2024-01-30T06:20:19;96187.91;;;-0.37;61.36
67545;BME280;54380;47.770;11.150;2024-01-30T06:22:48;96192.63;;;-0.32;61.33
67545;BME280;54380;47.770;11.150;2024-01-30T06:25:14;96188.78;;;-0.28;61.18
67545;BME280;54380;47.770;11.150;2024-01-30T06:27:43;96191.06;;;-0.25;60.81
67545;BME280;54380;47.770;11.150;2024-01-30T06:30:11;96194.47;;;-0.25;60.62
67545;BME280;54380;47.770;11.150;2024-01-30T06:32:37;96196.13;;;-0.24;60.88
67545;BME280;54380;47.770;11.150;2024-01-30T06:35:06;96201.13;;;-0.22;60.47
67545;BME280;54380;47.770;11.150;2024-01-30T06:37:32;96195.81;;;-0.20;60.53
67545;BME280;54380;47.770;11.150;2024-01-30T06:40:01;96195.00;;;-0.21;60.78
67545;BME280;54380;47.770;11.150;2024-01-30T06:42:28;96191.88;;;-0.25;60.68
67545;BME280;54380;47.770;11.150;2024-01-30T06:44:54;96205.47;;;-0.31;60.63
67545;BME280;54380;47.770;11.150;2024-01-30T06:47:21;96200.56;;;-0.34;60.65
67545;BME280;54380;47.770;11.150;2024-01-30T06:49:48;96200.41;;;-0.32;60.90
67545;BME280;54380;47.770;11.150;2024-01-30T06:52:15;96196.03;;;-0.32;61.09
67545;BME280;54380;47.770;11.150;2024-01-30T06:54:41;96199.59;;;-0.33;61.35
67545;BME280;54380;47.770;11.150;2024-01-30T06:57:09;96209.47;;;-0.36;61.42
67545;BME280;54380;47.770;11.150;2024-01-30T06:59:38;96202.00;;;-0.39;60.89
67545;BME280;54380;47.770;11.150;2024-01-30T07:02:10;96201.16;;;-0.40;61.28
67545;BME280;54380;47.770;11.150;2024-01-30T07:04:37;96208.94;;;-0.40;61.32
67545;BME280;54380;47.770;11.150;2024-01-30T07:07:09;96211.25;;;-0.37;61.78
67545;BME280;54380;47.770;11.150;2024-01-30T07:09:39;96215.47;;;-0.36;61.41
67545;BME280;54380;47.770;11.150;2024-01-30T07:12:06;96215.59;;;-0.37;61.75
67545;BME280;54380;47.770;11.150;2024-01-30T07:14:34;96216.28;;;-0.35;61.59
67545;BME280;54380;47.770;11.150;2024-01-30T07:17:02;96220.22;;;-0.31;61.59
67545;BME280;54380;47.770;11.150;2024-01-30T07:19:29;96226.88;;;-0.29;61.75
67545;BME280;54380;47.770;11.150;2024-01-30T07:21:55;96223.81;;;-0.24;61.35
67545;BME280;54380;47.770;11.150;2024-01-30T07:24:22;96214.13;;;-0.22;61.81
67545;BME280;54380;47.770;11.150;2024-01-30T07:26:49;96228.56;;;-0.19;61.38
67545;BME280;54380;47.770;11.150;2024-01-30T07:29:16;96214.47;;;-0.17;61.50
67545;BME280;54380;47.770;11.150;2024-01-30T07:31:44;96212.25;;;-0.12;61.50
67545;BME280;54380;47.770;11.150;2024-01-30T07:34:11;96217.66;;;-0.05;61.81
67545;BME280;54380;47.770;11.150;2024-01-30T07:36:38;96220.81;;;0.07;62.10
67545;BME280;54380;47.770;11.150;2024-01-30T07:39:05;96221.53;;;0.17;61.83
67545;BME280;54380;47.770;11.150;2024-01-30T07:41:32;96217.25;;;0.34;62.55
67545;BME280;54380;47.770;11.150;2024-01-30T07:43:59;96219.16;;;0.58;62.49
67545;BME280;54380;47.770;11.150;2024-01-30T07:46:26;96225.78;;;0.86;62.50
67545;BME280;54380;47.770;11.150;2024-01-30T07:48:54;96221.50;;;1.12;62.59
67545;BME280;54380;47.770;11.150;2024-01-30T07:51:22;96223.81;;;1.31;62.05
67545;BME280;54380;47.770;11.150;2024-01-30T07:53:49;96220.63;;;1.53;61.74
67545;BME280;54380;47.770;11.150;2024-01-30T07:56:16;96224.03;;;1.79;61.46
67545;BME280;54380;47.770;11.150;2024-01-30T07:58:42;96213.78;;;2.02;61.39
67545;BME280;54380;47.770;11.150;2024-01-30T08:01:09;96223.88;;;2.29;61.29
67545;BME280;54380;47.770;11.150;2024-01-30T08:03:36;96226.06;;;2.57;61.16
67545;BME280;54380;47.770;11.150;2024-01-30T08:06:07;96223.56;;;2.80;60.59
67545;BME280;54380;47.770;11.150;2024-01-30T08:08:34;96220.84;;;3.04;60.50
67545;BME280;54380;47.770;11.150;2024-01-30T08:11:01;96227.09;;;3.26;60.35
67545;BME280;54380;47.770;11.150;2024-01-30T08:13:28;96223.88;;;3.47;59.90
67545;BME280;54380;47.770;11.150;2024-01-30T08:15:55;96225.06;;;3.68;60.20
67545;BME280;54380;47.770;11.150;2024-01-30T08:18:22;96219.94;;;3.97;60.09
67545;BME280;54380;47.770;11.150;2024-01-30T08:20:49;96215.69;;;4.34;59.36
67545;BME280;54380;47.770;11.150;2024-01-30T08:23:17;96216.00;;;4.69;58.90
67545;BME280;54380;47.770;11.150;2024-01-30T08:25:43;96205.25;;;5.09;58.24
67545;BME280;54380;47.770;11.150;2024-01-30T08:28:10;96208.31;;;5.48;58.67
67545;BME280;54380;47.770;11.150;2024-01-30T08:30:37;96202.81;;;5.86;58.36
67545;BME280;54380;47.770;11.150;2024-01-30T08:33:05;96206.19;;;6.23;57.76
67545;BME280;54380;47.770;11.150;2024-01-30T08:35:32;96207.06;;;6.37;57.46
67545;BME280;54380;47.770;11.150;2024-01-30T08:38:00;96199.13;;;6.52;57.26
67545;BME280;54380;47.770;11.150;2024-01-30T08:40:29;96211.50;;;6.65;57.01
67545;BME280;54380;47.770;11.150;2024-01-30T08:42:56;96208.16;;;6.77;56.91
67545;BME280;54380;47.770;11.150;2024-01-30T08:45:23;96211.47;;;6.93;56.86
67545;BME280;54380;47.770;11.150;2024-01-30T08:47:50;96209.72;;;7.07;56.67
67545;BME280;54380;47.770;11.150;2024-01-30T08:50:17;96213.41;;;7.19;56.13
67545;BME280;54380;47.770;11.150;2024-01-30T08:52:44;96211.03;;;7.31;56.06
67545;BME280;54380;47.770;11.150;2024-01-30T08:55:13;96215.91;;;7.40;55.94
67545;BME280;54380;47.770;11.150;2024-01-30T08:57:41;96212.13;;;7.56;55.80
67545;BME280;54380;47.770;11.150;2024-01-30T09:00:08;96208.50;;;7.70;55.25
67545;BME280;54380;47.770;11.150;2024-01-30T09:02:36;96207.31;;;7.86;54.99
67545;BME280;54380;47.770;11.150;2024-01-30T09:05:04;96215.63;;;8.03;54.68
67545;BME280;54380;47.770;11.150;2024-01-30T09:07:31;96211.81;;;8.19;55.43
67545;BME280;54380;47.770;11.150;2024-01-30T09:09:58;96219.91;;;8.38;54.88
67545;BME280;54380;47.770;11.150;2024-01-30T09:12:24;96226.97;;;8.50;54.54
67545;BME280;54380;47.770;11.150;2024-01-30T09:14:53;96220.09;;;8.63;54.23
67545;BME280;54380;47.770;11.150;2024-01-30T09:17:20;96225.94;;;8.78;54.96
67545;BME280;54380;47.770;11.150;2024-01-30T09:19:46;96217.41;;;8.96;54.29
67545;BME280;54380;47.770;11.150;2024-01-30T09:22:13;96220.97;;;9.15;53.91
67545;BME280;54380;47.770;11.150;2024-01-30T09:24:40;96229.22;;;9.32;53.70
67545;BME280;54380;47.770;11.150;2024-01-30T09:27:07;96229.59;;;9.42;53.13
67545;BME280;54380;47.770;11.150;2024-01-30T09:29:34;96224.06;;;9.57;52.73
67545;BME280;54380;47.770;11.150;2024-01-30T09:32:06;96221.72;;;9.74;52.84
67545;BME280;54380;47.770;11.150;2024-01-30T09:34:36;96227.47;;;9.96;53.07
67545;BME280;54380;47.770;11.150;2024-01-30T09:37:03;96222.28;;;10.14;52.34
67545;BME280;54380;47.770;11.150;2024-01-30T09:39:30;96225.38;;;10.36;52.12
67545;BME280;54380;47.770;11.150;2024-01-30T09:42:07;96217.47;;;10.61;51.85
67545;BME280;54380;47.770;11.150;2024-01-30T09:44:38;96215.81;;;10.85;51.15
67545;BME280;54380;47.770;11.150;2024-01-30T09:47:06;96215.13;;;11.08;50.98
67545;BME280;54380;47.770;11.150;2024-01-30T09:49:34;96211.84;;;11.31;50.44
67545;BME280;54380;47.770;11.150;2024-01-30T09:52:02;96211.94;;;11.55;49.18
67545;BME280;54380;47.770;11.150;2024-01-30T09:54:30;96207.22;;;11.75;48.70
67545;BME280;54380;47.770;11.150;2024-01-30T09:57:02;96206.72;;;11.97;48.64
67545;BME280;54380;47.770;11.150;2024-01-30T09:59:29;96205.97;;;12.20;48.95
67545;BME280;54380;47.770;11.150;2024-01-30T10:01:56;96200.13;;;12.41;48.73
67545;BME280;54380;47.770;11.150;2024-01-30T10:04:24;96201.19;;;12.64;48.49
67545;BME280;54380;47.770;11.150;2024-01-30T10:06:51;96202.19;;;12.86;48.12
67545;BME280;54380;47.770;11.150;2024-01-30T10:09:18;96207.22;;;13.23;44.79
67545;BME280;54380;47.770;11.150;2024-01-30T10:11:45;96197.19;;;13.66;41.41
67545;BME280;54380;47.770;11.150;2024-01-30T10:14:12;96198.72;;;14.07;39.41
67545;BME280;54380;47.770;11.150;2024-01-30T10:16:39;96197.31;;;14.33;38.75
67545;BME280;54380;47.770;11.150;2024-01-30T10:19:06;96190.06;;;14.62;38.17
67545;BME280;54380;47.770;11.150;2024-01-30T10:21:34;96190.97;;;14.90;37.34
67545;BME280;54380;47.770;11.150;2024-01-30T10:24:01;96187.88;;;15.15;36.71
67545;BME280;54380;47.770;11.150;2024-01-30T10:26:28;96183.66;;;15.41;35.39
67545;BME280;54380;47.770;11.150;2024-01-30T10:28:55;96179.94;;;15.64;34.23
67545;BME280;54380;47.770;11.150;2024-01-30T10:31:22;96187.09;;;15.86;33.75
67545;BME280;54380;47.770;11.150;2024-01-30T10:33:49;96181.09;;;16.00;34.16
67545;BME280;54380;47.770;11.150;2024-01-30T10:36:17;96175.75;;;16.28;32.91
67545;BME280;54380;47.770;11.150;2024-01-30T10:38:49;96180.16;;;16.49;32.53
67545;BME280;54380;47.770;11.150;2024-01-30T10:41:19;96173.31;;;16.63;31.78
67545;BME280;54380;47.770;11.150;2024-01-30T10:43:58;96168.31;;;16.67;31.72
67545;BME280;54380;47.770;11.150;2024-01-30T10:46:31;96168.59;;;16.71;31.44
67545;BME280;54380;47.770;11.150;2024-01-30T10:48:58;96167.53;;;16.77;32.46
67545;BME280;54380;47.770;11.150;2024-01-30T10:51:26;96165.53;;;16.89;32.39
67545;BME280;54380;47.770;11.150;2024-01-30T10:53:56;96162.38;;;17.02;32.07
67545;BME280;54380;47.770;11.150;2024-01-30T10:56:25;96160.88;;;17.22;32.40
67545;BME280;54380;47.770;11.150;2024-01-30T10:58:52;96153.22;;;17.46;32.56
67545;BME280;54380;47.770;11.150;2024-01-30T11:01:20;96150.59;;;17.61;31.90
67545;BME280;54380;47.770;11.150;2024-01-30T11:03:50;96148.28;;;17.85;31.86
67545;BME280;54380;47.770;11.150;2024-01-30T11:06:18;96139.47;;;18.10;30.82
67545;BME280;54380;47.770;11.150;2024-01-30T11:08:45;96139.19;;;18.27;29.59
67545;BME280;54380;47.770;11.150;2024-01-30T11:11:16;96142.16;;;18.36;29.88
67545;BME280;54380;47.770;11.150;2024-01-30T11:13:44;96144.03;;;18.40;29.51
67545;BME280;54380;47.770;11.150;2024-01-30T11:16:11;96135.19;;;18.35;29.94
67545;BME280;54380;47.770;11.150;2024-01-30T11:18:38;96125.03;;;18.32;29.59
67545;BME280;54380;47.770;11.150;2024-01-30T11:21:05;96127.44;;;18.33;29.29
67545;BME280;54380;47.770;11.150;2024-01-30T11:23:33;96127.69;;;18.27;28.84
67545;BME280;54380;47.770;11.150;2024-01-30T11:26:00;96124.53;;;18.14;28.76
67545;BME280;54380;47.770;11.150;2024-01-30T11:28:32;96117.84;;;18.02;29.70
67545;BME280;54380;47.770;11.150;2024-01-30T11:31:03;96119.44;;;17.97;30.24
67545;BME280;54380;47.770;11.150;2024-01-30T11:33:30;96117.03;;;18.01;30.31
67545;BME280;54380;47.770;11.150;2024-01-30T11:36:00;96123.97;;;18.02;29.87
67545;BME280;54380;47.770;11.150;2024-01-30T11:38:28;96115.41;;;18.00;29.71
67545;BME280;54380;47.770;11.150;2024-01-30T11:40:56;96114.34;;;17.91;30.48
67545;BME280;54380;47.770;11.150;2024-01-30T11:43:24;96107.38;;;17.80;30.46
67545;BME280;54380;47.770;11.150;2024-01-30T11:45:52;96101.50;;;17.67;30.42
67545;BME280;54380;47.770;11.150;2024-01-30T11:48:19;96102.53;;;17.66;30.61
67545;BME280;54380;47.770;11.150;2024-01-30T11:50:46;96110.53;;;17.61;31.36
67545;BME280;54380;47.770;11.150;2024-01-30T11:53:13;96106.81;;;17.57;31.27
67545;BME280;54380;47.770;11.150;2024-01-30T11:55:40;96104.38;;;17.50;31.48
67545;BME280;54380;47.770;11.150;2024-01-30T11:58:07;96099.84;;;17.46;31.72
67545;BME280;54380;47.770;11.150;2024-01-30T12:00:34;96103.31;;;17.41;32.23
67545;BME280;54380;47.770;11.150;2024-01-30T12:03:04;96095.81;;;17.33;32.79
67545;BME280;54380;47.770;11.150;2024-01-30T12:05:33;96104.59;;;17.28;33.01
67545;BME280;54380;47.770;11.150;2024-01-30T12:08:00;96101.91;;;17.23;33.52
67545;BME280;54380;47.770;11.150;2024-01-30T12:10:28;96095.75;;;17.18;34.02
67545;BME280;54380;47.770;11.150;2024-01-30T12:12:56;96099.22;;;17.13;34.53
67545;BME280;54380;47.770;11.150;2024-01-30T12:15:24;96093.31;;;17.11;34.89
67545;BME280;54380;47.770;11.150;2024-01-30T12:17:51;96089.84;;;17.10;34.78
67545;BME280;54380;47.770;11.150;2024-01-30T12:20:19;96092.00;;;17.14;35.19
67545;BME280;54380;47.770;11.150;2024-01-30T12:22:47;96081.63;;;17.17;35.26
67545;BME280;54380;47.770;11.150;2024-01-30T12:25:15;96084.59;;;17.31;35.25
67545;BME280;54380;47.770;11.150;2024-01-30T12:27:44;96078.22;;;17.52;35.33
67545;BME280;54380;47.770;11.150;2024-01-30T12:30:12;96076.63;;;17.72;35.14
67545;BME280;54380;47.770;11.150;2024-01-30T12:32:41;96078.56;;;17.92;34.94
67545;BME280;54380;47.770;11.150;2024-01-30T12:35:10;96072.94;;;18.09;34.88
67545;BME280;54380;47.770;11.150;2024-01-30T12:37:39;96079.59;;;18.21;34.79
67545;BME280;54380;47.770;11.150;2024-01-30T12:40:07;96071.56;;;18.32;34.94
67545;BME280;54380;47.770;11.150;2024-01-30T12:42:34;96077.69;;;18.48;34.98
67545;BME280;54380;47.770;11.150;2024-01-30T12:45:02;96073.38;;;18.67;34.90
67545;BME280;54380;47.770;11.150;2024-01-30T12:47:29;96075.72;;;18.89;34.59
67545;BME280;54380;47.770;11.150;2024-01-30T12:49:55;96067.63;;;19.10;34.58
67545;BME280;54380;47.770;11.150;2024-01-30T12:52:22;96071.56;;;19.27;34.53
67545;BME280;54380;47.770;11.150;2024-01-30T12:54:51;96073.84;;;19.44;34.25
67545;BME280;54380;47.770;11.150;2024-01-30T12:57:18;96070.59;;;19.52;33.80